Cape Dorset Airport
CYTE : rendu visible

Aérodrome :











RETROUVEZ-NOUS SUR...

 
LOGIN :

S'inscrire | Disclaimer

   EN    FR    IT 

 









Légende :    VFR   VFR Marginal   IFR   IFR Intensif   IFR Très Intensif
Visi : 
Plafond : 
>= 8 km
>= 3000ft
5 à 8 km
1000 à 3000 ft
1500m à 5 km
500 à 1000 ft
800 à 1500m
200 à 500 ft
< 800m
< 200 ft
Symboles :   Orages  Brouillard  Fortes neiges  Fortes précipitations  Vent > 20 kt






- Altitude de l'aérodrome : 164 ft
- Code IATA : YTE


CYTE - Cape Dorset

DERNIER METAR :
  • 140100Z AUTO 25025G31KT 3/4SM -SN BLSN BKN012 BKN019 OVC026 M16/M19 A2965 RMK SLP050

METARs EXPIRÉS :
  • 140021Z AUTO 25024G36KT 1 1/2SM -SN BLSN BKN021 BKN025 M16/M20 A2965 RMK VIS VRB 1-2 1/2 SLP048
  • 140000Z AUTO 25026G34KT 3/4SM -SN BLSN BKN017 OVC024 M16/M19 A2966 RMK SLP051
  • 132300Z AUTO 26026G34KT 3/4SM -SN BLSN BKN018 OVC025 M16/M19 A2966 RMK SLP053

TAF TAF CYTE
Valide du 14 à 01h jusqu'au 14 à 13h UTC


140042Z 1401/1413 25025G35KT 3/4SM -SN BLSN VV007
TEMPO 1401/1413 2SM BLSN SCT007 OVC015 RMK FCST BASED ON AUTO OBS. NXT FCST BY 140700Z



MET'MAP, la Météo Aéronautique d'un coup d'oeil ! - Copyright ORBIFLY Décembre 2007 - Disclaimer

ORBIFLY MET'MAP TEAM :

Programmation & Développement : Alexandra Zaïnal
Sur une idée originale de : Baudouin d'Aumeries
Assistance à la programmation : Marc-Olivier Méhu
Soutien technique & logistique : Manuel Goepfert

Contact : metmap@orbifly.com




SOURCES & CREDITS :

   NOAA       Earth
Advisory